sensor_id;sensor_type;location;lat;lon;timestamp;temperature;humidity
76967;DHT22;65904;52.278;20.972;2024-01-07T00:02:25;-5.40;99.90
76967;DHT22;65904;52.278;20.972;2024-01-07T00:05:13;-5.40;99.90
76967;DHT22;65904;52.278;20.972;2024-01-07T00:07:59;-5.40;99.90
76967;DHT22;65904;52.278;20.972;2024-01-07T00:10:46;-5.40;99.90
76967;DHT22;65904;52.278;20.972;2024-01-07T00:13:31;-5.40;99.90
76967;DHT22;65904;52.278;20.972;2024-01-07T00:16:18;-5.40;99.90
76967;DHT22;65904;52.278;20.972;2024-01-07T00:19:03;-5.50;99.90
76967;DHT22;65904;52.278;20.972;2024-01-07T00:21:51;-5.50;99.90
76967;DHT22;65904;52.278;20.972;2024-01-07T00:24:37;-5.50;99.90
76967;DHT22;65904;52.278;20.972;2024-01-07T00:27:23;-5.50;99.90
76967;DHT22;65904;52.278;20.972;2024-01-07T00:30:10;-5.50;99.90
76967;DHT22;65904;52.278;20.972;2024-01-07T00:32:57;-5.50;99.90
76967;DHT22;65904;52.278;20.972;2024-01-07T00:35:43;-5.50;99.90
76967;DHT22;65904;52.278;20.972;2024-01-07T00:38:31;-5.50;99.90
76967;DHT22;65904;52.278;20.972;2024-01-07T00:41:17;-5.50;99.90
76967;DHT22;65904;52.278;20.972;2024-01-07T00:44:03;-5.50;99.90
76967;DHT22;65904;52.278;20.972;2024-01-07T00:46:49;-5.50;99.90
76967;DHT22;65904;52.278;20.972;2024-01-07T00:49:35;-5.50;99.90
76967;DHT22;65904;52.278;20.972;2024-01-07T00:52:21;-5.50;99.90
76967;DHT22;65904;52.278;20.972;2024-01-07T00:55:09;-5.50;99.90
76967;DHT22;65904;52.278;20.972;2024-01-07T00:57:55;-5.50;99.90
76967;DHT22;65904;52.278;20.972;2024-01-07T01:00:41;-5.60;99.90
76967;DHT22;65904;52.278;20.972;2024-01-07T01:03:27;-5.50;99.90
76967;DHT22;65904;52.278;20.972;2024-01-07T01:06:13;-5.50;99.90
76967;DHT22;65904;52.278;20.972;2024-01-07T01:08:59;-5.50;99.90
76967;DHT22;65904;52.278;20.972;2024-01-07T01:11:47;-5.50;99.90
76967;DHT22;65904;52.278;20.972;2024-01-07T01:14:34;-5.50;99.90
76967;DHT22;65904;52.278;20.972;2024-01-07T01:17:20;-5.40;99.90
76967;DHT22;65904;52.278;20.972;2024-01-07T01:20:07;-5.40;99.90
76967;DHT22;65904;52.278;20.972;2024-01-07T01:22:53;-5.30;99.90
76967;DHT22;65904;52.278;20.972;2024-01-07T01:25:39;-5.20;99.90
76967;DHT22;65904;52.278;20.972;2024-01-07T01:28:27;-5.20;99.90
76967;DHT22;65904;52.278;20.972;2024-01-07T01:31:14;-5.20;99.90
76967;DHT22;65904;52.278;20.972;2024-01-07T01:34:00;-5.20;99.90
76967;DHT22;65904;52.278;20.972;2024-01-07T01:36:46;-5.10;99.90
76967;DHT22;65904;52.278;20.972;2024-01-07T01:39:33;-5.20;99.90
76967;DHT22;65904;52.278;20.972;2024-01-07T01:42:18;-5.20;99.90
76967;DHT22;65904;52.278;20.972;2024-01-07T01:45:07;-5.10;99.90
76967;DHT22;65904;52.278;20.972;2024-01-07T01:47:53;-5.10;99.90
76967;DHT22;65904;52.278;20.972;2024-01-07T01:50:39;-5.00;99.90
76967;DHT22;65904;52.278;20.972;2024-01-07T01:53:26;-5.00;99.90
76967;DHT22;65904;52.278;20.972;2024-01-07T01:56:12;-5.00;99.90
76967;DHT22;65904;52.278;20.972;2024-01-07T01:58:59;-5.10;99.90
76967;DHT22;65904;52.278;20.972;2024-01-07T02:01:47;-5.10;99.90
76967;DHT22;65904;52.278;20.972;2024-01-07T02:04:33;-5.10;99.90
76967;DHT22;65904;52.278;20.972;2024-01-07T02:07:19;-5.10;99.90
76967;DHT22;65904;52.278;20.972;2024-01-07T02:10:06;-5.00;99.90
76967;DHT22;65904;52.278;20.972;2024-01-07T02:12:53;-5.10;99.90
76967;DHT22;65904;52.278;20.972;2024-01-07T02:15:39;-5.10;99.90
76967;DHT22;65904;52.278;20.972;2024-01-07T02:18:26;-5.00;99.90
76967;DHT22;65904;52.278;20.972;2024-01-07T02:21:13;-5.00;99.90
76967;DHT22;65904;52.278;20.972;2024-01-07T02:24:05;-5.10;99.90
76967;DHT22;65904;52.278;20.972;2024-01-07T02:26:51;-5.10;99.90
76967;DHT22;65904;52.278;20.972;2024-01-07T02:29:37;-5.10;99.90
76967;DHT22;65904;52.278;20.972;2024-01-07T02:32:23;-5.10;99.90
76967;DHT22;65904;52.278;20.972;2024-01-07T02:35:09;-5.10;99.90
76967;DHT22;65904;52.278;20.972;2024-01-07T02:37:55;-5.20;99.90
76967;DHT22;65904;52.278;20.972;2024-01-07T02:40:43;-5.20;99.90
76967;DHT22;65904;52.278;20.972;2024-01-07T02:43:29;-5.20;99.90
76967;DHT22;65904;52.278;20.972;2024-01-07T02:46:15;-5.30;99.90
76967;DHT22;65904;52.278;20.972;2024-01-07T02:49:01;-5.30;99.90
76967;DHT22;65904;52.278;20.972;2024-01-07T02:51:47;-5.40;99.90
76967;DHT22;65904;52.278;20.972;2024-01-07T02:54:34;-5.40;99.90
76967;DHT22;65904;52.278;20.972;2024-01-07T02:57:22;-5.50;99.90
76967;DHT22;65904;52.278;20.972;2024-01-07T03:00:08;-5.50;99.90
76967;DHT22;65904;52.278;20.972;2024-01-07T03:02:55;-5.50;99.90
76967;DHT22;65904;52.278;20.972;2024-01-07T03:05:41;-5.50;99.90
76967;DHT22;65904;52.278;20.972;2024-01-07T03:08:27;-5.50;99.90
76967;DHT22;65904;52.278;20.972;2024-01-07T03:11:13;-5.50;99.90
76967;DHT22;65904;52.278;20.972;2024-01-07T03:14:01;-5.50;99.90
76967;DHT22;65904;52.278;20.972;2024-01-07T03:16:47;-5.50;99.90
76967;DHT22;65904;52.278;20.972;2024-01-07T03:19:34;-5.50;99.90
76967;DHT22;65904;52.278;20.972;2024-01-07T03:22:19;-5.50;99.90
76967;DHT22;65904;52.278;20.972;2024-01-07T03:25:07;-5.50;99.90
76967;DHT22;65904;52.278;20.972;2024-01-07T03:27:53;-5.50;99.90
76967;DHT22;65904;52.278;20.972;2024-01-07T03:30:41;-5.50;99.90
76967;DHT22;65904;52.278;20.972;2024-01-07T03:33:27;-5.50;99.90
76967;DHT22;65904;52.278;20.972;2024-01-07T03:36:14;-5.50;99.90
76967;DHT22;65904;52.278;20.972;2024-01-07T03:39:00;-5.50;99.90
76967;DHT22;65904;52.278;20.972;2024-01-07T03:41:46;-5.50;99.90
76967;DHT22;65904;52.278;20.972;2024-01-07T03:44:32;-5.50;99.90
76967;DHT22;65904;52.278;20.972;2024-01-07T03:47:19;-5.50;99.90
76967;DHT22;65904;52.278;20.972;2024-01-07T03:50:06;-5.50;99.90
76967;DHT22;65904;52.278;20.972;2024-01-07T03:52:53;-5.60;99.90
76967;DHT22;65904;52.278;20.972;2024-01-07T03:55:39;-5.60;99.90
76967;DHT22;65904;52.278;20.972;2024-01-07T03:58:25;-5.60;99.90
76967;DHT22;65904;52.278;20.972;2024-01-07T04:01:16;-5.60;99.90
76967;DHT22;65904;52.278;20.972;2024-01-07T04:04:03;-5.60;99.90
76967;DHT22;65904;52.278;20.972;2024-01-07T04:06:50;-5.70;99.90
76967;DHT22;65904;52.278;20.972;2024-01-07T04:09:36;-5.70;99.90
76967;DHT22;65904;52.278;20.972;2024-01-07T04:12:22;-5.70;99.90
76967;DHT22;65904;52.278;20.972;2024-01-07T04:15:09;-5.70;99.90
76967;DHT22;65904;52.278;20.972;2024-01-07T04:17:55;-5.70;99.90
76967;DHT22;65904;52.278;20.972;2024-01-07T04:20:43;-5.70;99.90
76967;DHT22;65904;52.278;20.972;2024-01-07T04:23:28;-5.70;99.90
76967;DHT22;65904;52.278;20.972;2024-01-07T04:26:15;-5.70;99.90
76967;DHT22;65904;52.278;20.972;2024-01-07T04:29:01;-5.60;99.90
76967;DHT22;65904;52.278;20.972;2024-01-07T04:31:47;-5.60;99.90
76967;DHT22;65904;52.278;20.972;2024-01-07T04:34:34;-5.60;99.90
76967;DHT22;65904;52.278;20.972;2024-01-07T04:37:21;-5.60;99.90
76967;DHT22;65904;52.278;20.972;2024-01-07T04:40:08;-5.60;99.90
76967;DHT22;65904;52.278;20.972;2024-01-07T04:42:54;-5.60;99.90
76967;DHT22;65904;52.278;20.972;2024-01-07T04:45:40;-5.60;99.90
76967;DHT22;65904;52.278;20.972;2024-01-07T04:48:27;-5.60;99.90
76967;DHT22;65904;52.278;20.972;2024-01-07T04:51:13;-5.60;99.90
76967;DHT22;65904;52.278;20.972;2024-01-07T04:54:00;-5.60;99.90
76967;DHT22;65904;52.278;20.972;2024-01-07T04:56:46;-5.60;99.90
76967;DHT22;65904;52.278;20.972;2024-01-07T04:59:33;-5.60;99.90
76967;DHT22;65904;52.278;20.972;2024-01-07T05:02:18;-5.60;99.90
76967;DHT22;65904;52.278;20.972;2024-01-07T05:05:07;-5.60;99.90
76967;DHT22;65904;52.278;20.972;2024-01-07T05:07:53;-5.60;99.90
76967;DHT22;65904;52.278;20.972;2024-01-07T05:10:40;-5.70;99.90
76967;DHT22;65904;52.278;20.972;2024-01-07T05:13:26;-5.70;99.90
76967;DHT22;65904;52.278;20.972;2024-01-07T05:16:18;-5.70;99.90
76967;DHT22;65904;52.278;20.972;2024-01-07T05:19:04;-5.70;99.90
76967;DHT22;65904;52.278;20.972;2024-01-07T05:21:50;-5.80;99.90
76967;DHT22;65904;52.278;20.972;2024-01-07T05:24:37;-5.70;99.90
76967;DHT22;65904;52.278;20.972;2024-01-07T05:27:25;-5.70;99.90
76967;DHT22;65904;52.278;20.972;2024-01-07T05:30:11;-5.70;99.90
76967;DHT22;65904;52.278;20.972;2024-01-07T05:32:57;-5.70;99.90
76967;DHT22;65904;52.278;20.972;2024-01-07T05:35:43;-5.70;99.90
76967;DHT22;65904;52.278;20.972;2024-01-07T05:38:29;-5.80;99.90
76967;DHT22;65904;52.278;20.972;2024-01-07T05:41:15;-5.80;99.90
76967;DHT22;65904;52.278;20.972;2024-01-07T05:44:03;-5.80;99.90
76967;DHT22;65904;52.278;20.972;2024-01-07T05:46:49;-5.80;99.90
76967;DHT22;65904;52.278;20.972;2024-01-07T05:49:35;-5.80;99.90
76967;DHT22;65904;52.278;20.972;2024-01-07T05:52:21;-5.80;99.90
76967;DHT22;65904;52.278;20.972;2024-01-07T05:55:08;-5.70;99.90
76967;DHT22;65904;52.278;20.972;2024-01-07T05:57:53;-5.70;99.90
76967;DHT22;65904;52.278;20.972;2024-01-07T06:00:41;-5.70;99.90
76967;DHT22;65904;52.278;20.972;2024-01-07T06:03:27;-5.70;99.90
76967;DHT22;65904;52.278;20.972;2024-01-07T06:06:13;-5.70;99.90
76967;DHT22;65904;52.278;20.972;2024-01-07T06:08:59;-5.60;99.90
76967;DHT22;65904;52.278;20.972;2024-01-07T06:11:46;-5.70;99.90
76967;DHT22;65904;52.278;20.972;2024-01-07T06:14:32;-5.70;99.90
76967;DHT22;65904;52.278;20.972;2024-01-07T06:17:20;-5.70;99.90
76967;DHT22;65904;52.278;20.972;2024-01-07T06:20:07;-5.80;99.90
76967;DHT22;65904;52.278;20.972;2024-01-07T06:22:53;-5.80;99.90
76967;DHT22;65904;52.278;20.972;2024-01-07T06:25:39;-5.80;99.90
76967;DHT22;65904;52.278;20.972;2024-01-07T06:28:25;-5.80;99.90
76967;DHT22;65904;52.278;20.972;2024-01-07T06:31:11;-5.80;99.90
76967;DHT22;65904;52.278;20.972;2024-01-07T06:33:58;-5.80;99.90
76967;DHT22;65904;52.278;20.972;2024-01-07T06:36:45;-5.80;99.90
76967;DHT22;65904;52.278;20.972;2024-01-07T06:39:32;-5.70;99.90
76967;DHT22;65904;52.278;20.972;2024-01-07T06:42:19;-5.70;99.90
76967;DHT22;65904;52.278;20.972;2024-01-07T06:45:06;-5.70;99.90
76967;DHT22;65904;52.278;20.972;2024-01-07T06:47:52;-5.70;99.90
76967;DHT22;65904;52.278;20.972;2024-01-07T06:50:40;-5.70;99.90
76967;DHT22;65904;52.278;20.972;2024-01-07T06:53:26;-5.70;99.90
76967;DHT22;65904;52.278;20.972;2024-01-07T06:56:13;-5.70;99.90
76967;DHT22;65904;52.278;20.972;2024-01-07T06:58:59;-5.70;99.90
76967;DHT22;65904;52.278;20.972;2024-01-07T07:01:45;-5.70;99.90
76967;DHT22;65904;52.278;20.972;2024-01-07T07:04:31;-5.60;99.90
76967;DHT22;65904;52.278;20.972;2024-01-07T07:07:19;-5.60;99.90
76967;DHT22;65904;52.278;20.972;2024-01-07T07:10:05;-5.60;99.90
76967;DHT22;65904;52.278;20.972;2024-01-07T07:12:52;-5.60;99.90
76967;DHT22;65904;52.278;20.972;2024-01-07T07:15:38;-5.60;99.90
76967;DHT22;65904;52.278;20.972;2024-01-07T07:18:24;-5.50;99.90
76967;DHT22;65904;52.278;20.972;2024-01-07T07:21:10;-5.50;99.90
76967;DHT22;65904;52.278;20.972;2024-01-07T07:23:57;-5.50;99.90
76967;DHT22;65904;52.278;20.972;2024-01-07T07:26:43;-5.40;99.90
76967;DHT22;65904;52.278;20.972;2024-01-07T07:29:30;-5.40;99.90
76967;DHT22;65904;52.278;20.972;2024-01-07T07:32:16;-5.40;99.90
76967;DHT22;65904;52.278;20.972;2024-01-07T07:35:03;-5.40;99.90
76967;DHT22;65904;52.278;20.972;2024-01-07T07:37:49;-5.40;99.90
76967;DHT22;65904;52.278;20.972;2024-01-07T07:40:37;-5.40;99.90
76967;DHT22;65904;52.278;20.972;2024-01-07T07:43:23;-5.30;99.90
76967;DHT22;65904;52.278;20.972;2024-01-07T07:46:10;-5.30;99.90
76967;DHT22;65904;52.278;20.972;2024-01-07T07:48:58;-5.30;99.90
76967;DHT22;65904;52.278;20.972;2024-01-07T07:51:46;-5.30;99.90
76967;DHT22;65904;52.278;20.972;2024-01-07T07:54:31;-5.20;99.90
76967;DHT22;65904;52.278;20.972;2024-01-07T07:57:19;-5.10;99.90
76967;DHT22;65904;52.278;20.972;2024-01-07T08:00:07;-5.00;99.90
76967;DHT22;65904;52.278;20.972;2024-01-07T08:02:57;-5.00;99.90
76967;DHT22;65904;52.278;20.972;2024-01-07T08:05:43;-5.00;99.90
76967;DHT22;65904;52.278;20.972;2024-01-07T08:08:29;-5.00;99.90
76967;DHT22;65904;52.278;20.972;2024-01-07T08:11:16;-5.00;99.90
76967;DHT22;65904;52.278;20.972;2024-01-07T08:14:05;-4.90;99.90
76967;DHT22;65904;52.278;20.972;2024-01-07T08:16:51;-4.90;99.90
76967;DHT22;65904;52.278;20.972;2024-01-07T08:19:38;-4.90;99.90
76967;DHT22;65904;52.278;20.972;2024-01-07T08:22:24;-4.90;99.90
76967;DHT22;65904;52.278;20.972;2024-01-07T08:25:10;-4.80;99.90
76967;DHT22;65904;52.278;20.972;2024-01-07T08:27:56;-4.80;99.90
76967;DHT22;65904;52.278;20.972;2024-01-07T08:30:44;-4.60;99.90
76967;DHT22;65904;52.278;20.972;2024-01-07T08:33:30;-4.60;99.90
76967;DHT22;65904;52.278;20.972;2024-01-07T08:36:18;-4.60;99.90
76967;DHT22;65904;52.278;20.972;2024-01-07T08:39:04;-4.60;99.90
76967;DHT22;65904;52.278;20.972;2024-01-07T08:41:51;-4.50;99.90
76967;DHT22;65904;52.278;20.972;2024-01-07T08:44:37;-4.50;99.90
76967;DHT22;65904;52.278;20.972;2024-01-07T08:47:25;-4.50;99.90
76967;DHT22;65904;52.278;20.972;2024-01-07T08:50:13;-4.50;99.90
76967;DHT22;65904;52.278;20.972;2024-01-07T08:52:59;-4.50;99.90
76967;DHT22;65904;52.278;20.972;2024-01-07T08:55:45;-4.60;99.90
76967;DHT22;65904;52.278;20.972;2024-01-07T08:58:32;-4.60;99.90
76967;DHT22;65904;52.278;20.972;2024-01-07T09:01:18;-4.60;99.90
76967;DHT22;65904;52.278;20.972;2024-01-07T09:04:06;-4.60;99.90
76967;DHT22;65904;52.278;20.972;2024-01-07T09:06:52;-4.50;99.90
76967;DHT22;65904;52.278;20.972;2024-01-07T09:09:38;-4.50;99.90
76967;DHT22;65904;52.278;20.972;2024-01-07T09:12:24;-4.50;99.90
76967;DHT22;65904;52.278;20.972;2024-01-07T09:15:10;-4.50;99.90
76967;DHT22;65904;52.278;20.972;2024-01-07T09:17:56;-4.50;99.90
76967;DHT22;65904;52.278;20.972;2024-01-07T09:20:43;-4.50;99.90
76967;DHT22;65904;52.278;20.972;2024-01-07T09:23:29;-4.50;99.90
76967;DHT22;65904;52.278;20.972;2024-01-07T09:26:16;-4.50;99.90
76967;DHT22;65904;52.278;20.972;2024-01-07T09:29:01;-4.50;99.90
76967;DHT22;65904;52.278;20.972;2024-01-07T09:31:48;-4.50;99.90
76967;DHT22;65904;52.278;20.972;2024-01-07T09:34:33;-4.40;99.90
76967;DHT22;65904;52.278;20.972;2024-01-07T09:37:21;-4.40;99.90
76967;DHT22;65904;52.278;20.972;2024-01-07T09:40:07;-4.40;99.90
76967;DHT22;65904;52.278;20.972;2024-01-07T09:42:55;-4.50;99.90
76967;DHT22;65904;52.278;20.972;2024-01-07T09:45:42;-4.50;99.90
76967;DHT22;65904;52.278;20.972;2024-01-07T09:48:31;-4.40;99.90
76967;DHT22;65904;52.278;20.972;2024-01-07T09:51:21;-4.50;99.90
76967;DHT22;65904;52.278;20.972;2024-01-07T09:54:09;-4.50;99.90
76967;DHT22;65904;52.278;20.972;2024-01-07T09:57:01;-4.50;99.90
76967;DHT22;65904;52.278;20.972;2024-01-07T09:59:48;-4.50;99.90
76967;DHT22;65904;52.278;20.972;2024-01-07T10:02:35;-4.50;99.90
76967;DHT22;65904;52.278;20.972;2024-01-07T10:05:21;-4.50;99.90
76967;DHT22;65904;52.278;20.972;2024-01-07T10:08:07;-4.50;99.90
76967;DHT22;65904;52.278;20.972;2024-01-07T10:10:55;-4.50;99.90
76967;DHT22;65904;52.278;20.972;2024-01-07T10:13:41;-4.60;99.90
76967;DHT22;65904;52.278;20.972;2024-01-07T10:16:27;-4.60;99.90
76967;DHT22;65904;52.278;20.972;2024-01-07T10:19:19;-4.50;99.90
76967;DHT22;65904;52.278;20.972;2024-01-07T10:22:07;-4.50;99.90
76967;DHT22;65904;52.278;20.972;2024-01-07T10:24:53;-4.50;99.90
76967;DHT22;65904;52.278;20.972;2024-01-07T10:27:40;-4.50;99.90
76967;DHT22;65904;52.278;20.972;2024-01-07T10:30:27;-4.50;99.90
76967;DHT22;65904;52.278;20.972;2024-01-07T10:33:13;-4.60;99.90
76967;DHT22;65904;52.278;20.972;2024-01-07T10:36:05;-4.60;99.90
76967;DHT22;65904;52.278;20.972;2024-01-07T10:38:52;-4.40;99.90
76967;DHT22;65904;52.278;20.972;2024-01-07T10:41:38;-4.30;99.90
76967;DHT22;65904;52.278;20.972;2024-01-07T10:44:29;-4.10;99.90
76967;DHT22;65904;52.278;20.972;2024-01-07T10:47:17;-4.10;99.90
76967;DHT22;65904;52.278;20.972;2024-01-07T10:50:06;-4.20;99.90
76967;DHT22;65904;52.278;20.972;2024-01-07T10:52:58;-4.20;99.90
76967;DHT22;65904;52.278;20.972;2024-01-07T10:55:54;-4.20;99.90
76967;DHT22;65904;52.278;20.972;2024-01-07T10:58:41;-4.30;99.90
76967;DHT22;65904;52.278;20.972;2024-01-07T11:01:29;-4.40;99.90
76967;DHT22;65904;52.278;20.972;2024-01-07T11:04:22;-4.40;99.90
76967;DHT22;65904;52.278;20.972;2024-01-07T11:07:16;-4.50;99.90
76967;DHT22;65904;52.278;20.972;2024-01-07T11:10:10;-4.50;99.90
76967;DHT22;65904;52.278;20.972;2024-01-07T11:12:57;-4.50;99.90
76967;DHT22;65904;52.278;20.972;2024-01-07T11:15:53;-4.40;99.90
76967;DHT22;65904;52.278;20.972;2024-01-07T11:18:46;-4.40;99.90
76967;DHT22;65904;52.278;20.972;2024-01-07T11:21:35;-4.40;99.90
76967;DHT22;65904;52.278;20.972;2024-01-07T11:24:40;-4.40;99.90
76967;DHT22;65904;52.278;20.972;2024-01-07T11:27:29;-4.40;99.90
76967;DHT22;65904;52.278;20.972;2024-01-07T11:30:19;-4.40;99.90
76967;DHT22;65904;52.278;20.972;2024-01-07T11:33:05;-4.40;99.90
76967;DHT22;65904;52.278;20.972;2024-01-07T11:35:56;-4.40;99.90
76967;DHT22;65904;52.278;20.972;2024-01-07T11:38:43;-4.50;99.90
76967;DHT22;65904;52.278;20.972;2024-01-07T11:41:32;-4.50;99.90
76967;DHT22;65904;52.278;20.972;2024-01-07T11:44:19;-4.60;99.90
76967;DHT22;65904;52.278;20.972;2024-01-07T11:47:05;-4.60;99.90
76967;DHT22;65904;52.278;20.972;2024-01-07T11:49:51;-4.50;99.90
76967;DHT22;65904;52.278;20.972;2024-01-07T11:52:42;-4.40;99.90
76967;DHT22;65904;52.278;20.972;2024-01-07T11:55:29;-4.50;99.90
76967;DHT22;65904;52.278;20.972;2024-01-07T11:58:17;-4.50;99.90
76967;DHT22;65904;52.278;20.972;2024-01-07T12:01:03;-4.60;99.90
76967;DHT22;65904;52.278;20.972;2024-01-07T12:03:49;-4.70;99.90
76967;DHT22;65904;52.278;20.972;2024-01-07T12:06:36;-4.80;99.90
76967;DHT22;65904;52.278;20.972;2024-01-07T12:09:23;-4.70;99.90
76967;DHT22;65904;52.278;20.972;2024-01-07T12:12:10;-4.70;99.90
76967;DHT22;65904;52.278;20.972;2024-01-07T12:14:57;-4.70;99.90
76967;DHT22;65904;52.278;20.972;2024-01-07T12:17:55;-4.70;99.90
76967;DHT22;65904;52.278;20.972;2024-01-07T12:20:41;-4.60;99.90
76967;DHT22;65904;52.278;20.972;2024-01-07T12:23:27;-4.60;99.90
76967;DHT22;65904;52.278;20.972;2024-01-07T12:26:15;-4.60;99.90
76967;DHT22;65904;52.278;20.972;2024-01-07T12:29:01;-4.60;99.90
76967;DHT22;65904;52.278;20.972;2024-01-07T12:31:50;-4.50;99.90
76967;DHT22;65904;52.278;20.972;2024-01-07T12:34:37;-4.60;99.90
76967;DHT22;65904;52.278;20.972;2024-01-07T12:37:26;-4.60;99.90
76967;DHT22;65904;52.278;20.972;2024-01-07T12:40:12;-4.70;99.90
76967;DHT22;65904;52.278;20.972;2024-01-07T12:42:59;-4.60;99.90
76967;DHT22;65904;52.278;20.972;2024-01-07T12:45:47;-4.60;99.90
76967;DHT22;65904;52.278;20.972;2024-01-07T12:48:34;-4.70;99.90
76967;DHT22;65904;52.278;20.972;2024-01-07T12:51:19;-4.70;99.90
76967;DHT22;65904;52.278;20.972;2024-01-07T12:54:06;-4.60;99.90
76967;DHT22;65904;52.278;20.972;2024-01-07T12:56:52;-4.70;99.90
76967;DHT22;65904;52.278;20.972;2024-01-07T12:59:39;-4.70;99.90
76967;DHT22;65904;52.278;20.972;2024-01-07T13:02:25;-4.60;99.90
76967;DHT22;65904;52.278;20.972;2024-01-07T13:05:13;-4.60;99.90
76967;DHT22;65904;52.278;20.972;2024-01-07T13:07:59;-4.70;99.90
76967;DHT22;65904;52.278;20.972;2024-01-07T13:10:45;-4.80;99.90
76967;DHT22;65904;52.278;20.972;2024-01-07T13:13:32;-4.80;99.90
76967;DHT22;65904;52.278;20.972;2024-01-07T13:16:19;-4.90;99.90
76967;DHT22;65904;52.278;20.972;2024-01-07T13:19:05;-4.90;99.90
76967;DHT22;65904;52.278;20.972;2024-01-07T13:21:53;-5.00;99.90
76967;DHT22;65904;52.278;20.972;2024-01-07T13:24:42;-5.10;99.90
76967;DHT22;65904;52.278;20.972;2024-01-07T13:27:29;-5.00;99.90
76967;DHT22;65904;52.278;20.972;2024-01-07T13:30:15;-5.10;99.90
76967;DHT22;65904;52.278;20.972;2024-01-07T13:33:03;-5.10;99.90
76967;DHT22;65904;52.278;20.972;2024-01-07T13:35:49;-5.10;99.90
76967;DHT22;65904;52.278;20.972;2024-01-07T13:38:35;-5.20;99.90
76967;DHT22;65904;52.278;20.972;2024-01-07T13:41:22;-5.20;99.90
76967;DHT22;65904;52.278;20.972;2024-01-07T13:44:09;-5.20;99.90
76967;DHT22;65904;52.278;20.972;2024-01-07T13:47:02;-5.30;99.90
76967;DHT22;65904;52.278;20.972;2024-01-07T13:49:51;-5.30;99.90
76967;DHT22;65904;52.278;20.972;2024-01-07T13:52:37;-5.40;99.90
76967;DHT22;65904;52.278;20.972;2024-01-07T13:55:24;-5.40;99.90
76967;DHT22;65904;52.278;20.972;2024-01-07T13:58:10;-5.50;99.90
76967;DHT22;65904;52.278;20.972;2024-01-07T14:00:56;-5.50;99.90
76967;DHT22;65904;52.278;20.972;2024-01-07T14:03:42;-5.50;99.90
76967;DHT22;65904;52.278;20.972;2024-01-07T14:06:29;-5.50;99.90
76967;DHT22;65904;52.278;20.972;2024-01-07T14:09:16;-5.40;99.90
76967;DHT22;65904;52.278;20.972;2024-01-07T14:12:02;-5.50;99.90
76967;DHT22;65904;52.278;20.972;2024-01-07T14:14:48;-5.60;99.90
76967;DHT22;65904;52.278;20.972;2024-01-07T14:17:35;-5.50;99.90
76967;DHT22;65904;52.278;20.972;2024-01-07T14:20:21;-5.50;99.90
76967;DHT22;65904;52.278;20.972;2024-01-07T14:23:09;-5.60;99.90
76967;DHT22;65904;52.278;20.972;2024-01-07T14:25:55;-5.60;99.90
76967;DHT22;65904;52.278;20.972;2024-01-07T14:28:41;-5.70;99.90
76967;DHT22;65904;52.278;20.972;2024-01-07T14:31:27;-5.70;99.90
76967;DHT22;65904;52.278;20.972;2024-01-07T14:34:13;-5.80;99.90
76967;DHT22;65904;52.278;20.972;2024-01-07T14:36:59;-5.90;99.90
76967;DHT22;65904;52.278;20.972;2024-01-07T14:39:48;-6.00;99.90
76967;DHT22;65904;52.278;20.972;2024-01-07T14:42:34;-6.00;99.90
76967;DHT22;65904;52.278;20.972;2024-01-07T14:45:20;-6.00;99.90
76967;DHT22;65904;52.278;20.972;2024-01-07T14:48:06;-6.10;99.90
76967;DHT22;65904;52.278;20.972;2024-01-07T14:50:53;-6.10;99.90
76967;DHT22;65904;52.278;20.972;2024-01-07T14:53:38;-6.10;99.90
76967;DHT22;65904;52.278;20.972;2024-01-07T14:56:27;-6.10;99.90
76967;DHT22;65904;52.278;20.972;2024-01-07T14:59:13;-6.10;99.90
76967;DHT22;65904;52.278;20.972;2024-01-07T15:02:00;-6.10;99.90
76967;DHT22;65904;52.278;20.972;2024-01-07T15:04:45;-6.10;99.90
76967;DHT22;65904;52.278;20.972;2024-01-07T15:07:32;-6.10;99.90
76967;DHT22;65904;52.278;20.972;2024-01-07T15:10:18;-6.10;99.90
76967;DHT22;65904;52.278;20.972;2024-01-07T15:13:06;-6.10;99.90
76967;DHT22;65904;52.278;20.972;2024-01-07T15:15:52;-6.20;99.90
76967;DHT22;65904;52.278;20.972;2024-01-07T15:18:39;-6.20;99.90
76967;DHT22;65904;52.278;20.972;2024-01-07T15:21:25;-6.30;99.90
76967;DHT22;65904;52.278;20.972;2024-01-07T15:24:11;-6.40;99.90
76967;DHT22;65904;52.278;20.972;2024-01-07T15:26:57;-6.50;99.90
76967;DHT22;65904;52.278;20.972;2024-01-07T15:29:45;-6.50;99.90
76967;DHT22;65904;52.278;20.972;2024-01-07T15:32:31;-6.50;99.90
76967;DHT22;65904;52.278;20.972;2024-01-07T15:35:18;-6.60;99.90
76967;DHT22;65904;52.278;20.972;2024-01-07T15:38:04;-6.70;99.90
76967;DHT22;65904;52.278;20.972;2024-01-07T15:40:50;-6.70;99.90
76967;DHT22;65904;52.278;20.972;2024-01-07T15:43:36;-6.70;99.90
76967;DHT22;65904;52.278;20.972;2024-01-07T15:46:24;-6.80;99.90
76967;DHT22;65904;52.278;20.972;2024-01-07T15:49:10;-6.90;99.90
76967;DHT22;65904;52.278;20.972;2024-01-07T15:51:56;-7.00;99.90
76967;DHT22;65904;52.278;20.972;2024-01-07T15:54:42;-7.00;99.90
76967;DHT22;65904;52.278;20.972;2024-01-07T15:57:29;-7.00;99.90
76967;DHT22;65904;52.278;20.972;2024-01-07T16:00:15;-7.00;99.90
76967;DHT22;65904;52.278;20.972;2024-01-07T16:03:03;-7.00;99.90
76967;DHT22;65904;52.278;20.972;2024-01-07T16:05:50;-7.00;99.90
76967;DHT22;65904;52.278;20.972;2024-01-07T16:08:36;-7.00;99.90
76967;DHT22;65904;52.278;20.972;2024-01-07T16:11:22;-7.00;99.90
76967;DHT22;65904;52.278;20.972;2024-01-07T16:14:08;-7.00;99.90
76967;DHT22;65904;52.278;20.972;2024-01-07T16:16:54;-7.00;99.90
76967;DHT22;65904;52.278;20.972;2024-01-07T16:19:42;-7.00;99.90
76967;DHT22;65904;52.278;20.972;2024-01-07T16:22:28;-7.00;99.90
76967;DHT22;65904;52.278;20.972;2024-01-07T16:25:15;-7.00;99.90
76967;DHT22;65904;52.278;20.972;2024-01-07T16:28:02;-7.00;99.90
76967;DHT22;65904;52.278;20.972;2024-01-07T16:30:48;-7.00;99.90
76967;DHT22;65904;52.278;20.972;2024-01-07T16:33:34;-7.10;99.90
76967;DHT22;65904;52.278;20.972;2024-01-07T16:36:22;-7.10;99.90
76967;DHT22;65904;52.278;20.972;2024-01-07T16:39:08;-7.10;99.90
76967;DHT22;65904;52.278;20.972;2024-01-07T16:41:54;-7.10;99.90
76967;DHT22;65904;52.278;20.972;2024-01-07T16:44:42;-7.10;99.90
76967;DHT22;65904;52.278;20.972;2024-01-07T16:47:28;-7.20;99.90
76967;DHT22;65904;52.278;20.972;2024-01-07T16:50:14;-7.20;99.90
76967;DHT22;65904;52.278;20.972;2024-01-07T16:53:02;-7.30;99.90
76967;DHT22;65904;52.278;20.972;2024-01-07T16:55:50;-7.40;99.90
76967;DHT22;65904;52.278;20.972;2024-01-07T16:58:36;-7.40;99.90
76967;DHT22;65904;52.278;20.972;2024-01-07T17:01:22;-7.50;99.90
76967;DHT22;65904;52.278;20.972;2024-01-07T17:04:10;-7.50;99.90
76967;DHT22;65904;52.278;20.972;2024-01-07T17:06:56;-7.50;99.90
76967;DHT22;65904;52.278;20.972;2024-01-07T17:09:43;-7.60;99.90
76967;DHT22;65904;52.278;20.972;2024-01-07T17:12:29;-7.60;99.90
76967;DHT22;65904;52.278;20.972;2024-01-07T17:15:16;-7.60;99.90
76967;DHT22;65904;52.278;20.972;2024-01-07T17:18:02;-7.70;99.90